sensor_id;sensor_type;location;lat;lon;timestamp;pressure;altitude;pressure_sealevel;temperature;humidity
41632;BME280;37452;51.938;4.624;2023-01-19T00:01:24;76904.94;;;-142.75;100.00
41632;BME280;37452;51.938;4.624;2023-01-19T00:03:50;76916.75;;;-142.75;100.00
41632;BME280;37452;51.938;4.624;2023-01-19T00:06:16;76924.63;;;-142.75;100.00
41632;BME280;37452;51.938;4.624;2023-01-19T00:08:41;76916.75;;;-142.75;100.00
41632;BME280;37452;51.938;4.624;2023-01-19T00:11:10;76920.69;;;-142.75;100.00
41632;BME280;37452;51.938;4.624;2023-01-19T00:13:36;76946.28;;;-142.75;100.00
41632;BME280;37452;51.938;4.624;2023-01-19T00:16:02;76940.38;;;-142.75;100.00
41632;BME280;37452;51.938;4.624;2023-01-19T00:18:27;76930.53;;;-142.75;100.00
41632;BME280;37452;51.938;4.624;2023-01-19T00:20:52;76936.44;;;-142.75;100.00
41632;BME280;37452;51.938;4.624;2023-01-19T00:23:18;76944.31;;;-142.75;100.00
41632;BME280;37452;51.938;4.624;2023-01-19T00:25:44;76940.38;;;-142.75;100.00
41632;BME280;37452;51.938;4.624;2023-01-19T00:28:11;76958.09;;;-142.75;100.00
41632;BME280;37452;51.938;4.624;2023-01-19T00:30:38;76987.63;;;-142.75;100.00
41632;BME280;37452;51.938;4.624;2023-01-19T00:33:03;76969.91;;;-142.75;100.00
41632;BME280;37452;51.938;4.624;2023-01-19T00:35:29;76981.72;;;-142.75;100.00
41632;BME280;37452;51.938;4.624;2023-01-19T00:37:55;76999.44;;;-142.75;100.00
41632;BME280;37452;51.938;4.624;2023-01-19T00:40:21;76983.69;;;-142.75;100.00
41632;BME280;37452;51.938;4.624;2023-01-19T00:42:46;76977.78;;;-142.75;100.00
41632;BME280;37452;51.938;4.624;2023-01-19T00:45:18;76973.84;;;-142.75;100.00
41632;BME280;37452;51.938;4.624;2023-01-19T00:47:46;76979.75;;;-142.75;100.00
41632;BME280;37452;51.938;4.624;2023-01-19T00:50:13;76999.44;;;-142.75;100.00
41632;BME280;37452;51.938;4.624;2023-01-19T00:52:42;76999.44;;;-142.75;100.00
41632;BME280;37452;51.938;4.624;2023-01-19T00:55:09;76987.63;;;-142.75;100.00
41632;BME280;37452;51.938;4.624;2023-01-19T00:57:34;76989.59;;;-142.75;100.00
41632;BME280;37452;51.938;4.624;2023-01-19T01:00:00;76997.47;;;-142.75;100.00
41632;BME280;37452;51.938;4.624;2023-01-19T01:02:26;77003.38;;;-142.75;100.00
41632;BME280;37452;51.938;4.624;2023-01-19T01:04:51;77025.03;;;-142.75;100.00
41632;BME280;37452;51.938;4.624;2023-01-19T01:07:23;77038.81;;;-142.75;100.00
41632;BME280;37452;51.938;4.624;2023-01-19T01:09:49;77028.97;;;-142.75;100.00
41632;BME280;37452;51.938;4.624;2023-01-19T01:12:15;77023.06;;;-142.75;100.00
41632;BME280;37452;51.938;4.624;2023-01-19T01:14:40;77046.69;;;-142.75;100.00
41632;BME280;37452;51.938;4.624;2023-01-19T01:17:06;77034.88;;;-142.75;100.00
41632;BME280;37452;51.938;4.624;2023-01-19T01:19:38;77025.03;;;-142.75;100.00
41632;BME280;37452;51.938;4.624;2023-01-19T01:22:04;77019.13;;;-142.75;100.00
41632;BME280;37452;51.938;4.624;2023-01-19T01:24:29;77021.09;;;-142.75;100.00
41632;BME280;37452;51.938;4.624;2023-01-19T01:26:55;77030.94;;;-142.75;100.00
41632;BME280;37452;51.938;4.624;2023-01-19T01:29:20;77038.81;;;-142.75;100.00
41632;BME280;37452;51.938;4.624;2023-01-19T01:31:45;77040.78;;;-142.75;100.00
41632;BME280;37452;51.938;4.624;2023-01-19T01:34:11;77050.63;;;-142.75;100.00
41632;BME280;37452;51.938;4.624;2023-01-19T01:36:36;77070.31;;;-142.75;100.00
41632;BME280;37452;51.938;4.624;2023-01-19T01:39:02;77078.19;;;-142.75;100.00
41632;BME280;37452;51.938;4.624;2023-01-19T01:41:27;77076.22;;;-142.75;100.00
41632;BME280;37452;51.938;4.624;2023-01-19T01:43:54;77101.81;;;-142.75;100.00
41632;BME280;37452;51.938;4.624;2023-01-19T01:46:25;77091.97;;;-142.75;100.00
41632;BME280;37452;51.938;4.624;2023-01-19T01:49:06;77082.13;;;-142.75;100.00
41632;BME280;37452;51.938;4.624;2023-01-19T01:51:37;77119.53;;;-142.75;100.00
41632;BME280;37452;51.938;4.624;2023-01-19T01:54:14;77099.84;;;-142.75;100.00
41632;BME280;37452;51.938;4.624;2023-01-19T01:56:53;77107.72;;;-142.75;100.00
41632;BME280;37452;51.938;4.624;2023-01-19T01:59:23;77095.91;;;-142.75;100.00
41632;BME280;37452;51.938;4.624;2023-01-19T02:01:56;77091.97;;;-142.75;100.00
41632;BME280;37452;51.938;4.624;2023-01-19T02:04:46;77084.09;;;-142.75;100.00
41632;BME280;37452;51.938;4.624;2023-01-19T02:07:15;77076.22;;;-142.75;100.00
41632;BME280;37452;51.938;4.624;2023-01-19T02:10:02;77080.16;;;-142.75;100.00
41632;BME280;37452;51.938;4.624;2023-01-19T02:12:46;77050.63;;;-142.75;100.00
41632;BME280;37452;51.938;4.624;2023-01-19T02:15:30;77084.09;;;-142.75;100.00
41632;BME280;37452;51.938;4.624;2023-01-19T02:17:56;77088.03;;;-142.75;100.00
41632;BME280;37452;51.938;4.624;2023-01-19T02:20:25;77095.91;;;-142.75;100.00
41632;BME280;37452;51.938;4.624;2023-01-19T02:22:53;77084.09;;;-142.75;100.00
41632;BME280;37452;51.938;4.624;2023-01-19T02:25:21;77121.50;;;-142.75;100.00
41632;BME280;37452;51.938;4.624;2023-01-19T02:27:47;77133.31;;;-142.75;100.00
41632;BME280;37452;51.938;4.624;2023-01-19T02:30:13;77156.94;;;-142.75;100.00
41632;BME280;37452;51.938;4.624;2023-01-19T02:32:41;77170.72;;;-142.75;100.00
41632;BME280;37452;51.938;4.624;2023-01-19T02:35:06;77190.41;;;-142.75;100.00
41632;BME280;37452;51.938;4.624;2023-01-19T02:37:35;77217.97;;;-142.75;100.00
41632;BME280;37452;51.938;4.624;2023-01-19T02:40:08;77231.75;;;-142.75;100.00
41632;BME280;37452;51.938;4.624;2023-01-19T02:42:47;77225.84;;;-142.75;100.00
41632;BME280;37452;51.938;4.624;2023-01-19T02:45:17;77217.97;;;-142.75;100.00
41632;BME280;37452;51.938;4.624;2023-01-19T02:47:47;77219.94;;;-142.75;100.00
41632;BME280;37452;51.938;4.624;2023-01-19T02:53:23;77196.31;;;-142.75;100.00
41632;BME280;37452;51.938;4.624;2023-01-19T02:56:05;77196.31;;;-142.75;100.00
41632;BME280;37452;51.938;4.624;2023-01-19T03:04:43;77204.19;;;-142.75;100.00
41632;BME280;37452;51.938;4.624;2023-01-19T03:10:10;77204.19;;;-142.75;100.00
41632;BME280;37452;51.938;4.624;2023-01-19T03:12:53;77186.47;;;-142.75;100.00
41632;BME280;37452;51.938;4.624;2023-01-19T03:15:25;77186.47;;;-142.75;100.00
41632;BME280;37452;51.938;4.624;2023-01-19T03:17:54;77180.56;;;-142.75;100.00
41632;BME280;37452;51.938;4.624;2023-01-19T03:20:22;77196.31;;;-142.75;100.00
41632;BME280;37452;51.938;4.624;2023-01-19T03:22:52;77166.78;;;-142.75;100.00
41632;BME280;37452;51.938;4.624;2023-01-19T03:25:21;77168.75;;;-142.75;100.00
41632;BME280;37452;51.938;4.624;2023-01-19T03:27:49;77168.75;;;-142.75;100.00
41632;BME280;37452;51.938;4.624;2023-01-19T03:30:30;77141.19;;;-142.75;100.00
41632;BME280;37452;51.938;4.624;2023-01-19T03:33:23;77174.66;;;-142.75;100.00
41632;BME280;37452;51.938;4.624;2023-01-19T03:35:56;77170.72;;;-142.75;100.00
41632;BME280;37452;51.938;4.624;2023-01-19T03:38:26;77166.78;;;-142.75;100.00
41632;BME280;37452;51.938;4.624;2023-01-19T03:40:56;77178.59;;;-142.75;100.00
41632;BME280;37452;51.938;4.624;2023-01-19T03:43:23;77153.00;;;-142.75;100.00
41632;BME280;37452;51.938;4.624;2023-01-19T03:45:51;77162.84;;;-142.75;100.00
41632;BME280;37452;51.938;4.624;2023-01-19T03:48:19;77156.94;;;-142.75;100.00
41632;BME280;37452;51.938;4.624;2023-01-19T03:50:45;77158.91;;;-142.75;100.00
41632;BME280;37452;51.938;4.624;2023-01-19T03:53:13;77149.06;;;-142.75;100.00
41632;BME280;37452;51.938;4.624;2023-01-19T03:55:40;77147.09;;;-142.75;100.00
41632;BME280;37452;51.938;4.624;2023-01-19T03:58:07;77133.31;;;-142.75;100.00
41632;BME280;37452;51.938;4.624;2023-01-19T04:00:33;77137.25;;;-142.75;100.00
41632;BME280;37452;51.938;4.624;2023-01-19T04:03:01;77133.31;;;-142.75;100.00
41632;BME280;37452;51.938;4.624;2023-01-19T04:05:26;77141.19;;;-142.75;100.00
41632;BME280;37452;51.938;4.624;2023-01-19T04:07:51;77133.31;;;-142.75;100.00
41632;BME280;37452;51.938;4.624;2023-01-19T04:10:17;77121.50;;;-142.75;100.00
41632;BME280;37452;51.938;4.624;2023-01-19T04:12:44;77117.56;;;-142.75;100.00
41632;BME280;37452;51.938;4.624;2023-01-19T04:15:09;77111.66;;;-142.75;100.00
41632;BME280;37452;51.938;4.624;2023-01-19T04:17:35;77119.53;;;-142.75;100.00
41632;BME280;37452;51.938;4.624;2023-01-19T04:20:00;77119.53;;;-142.75;100.00
41632;BME280;37452;51.938;4.624;2023-01-19T04:22:25;77125.44;;;-142.75;100.00
41632;BME280;37452;51.938;4.624;2023-01-19T04:24:51;77125.44;;;-142.75;100.00
41632;BME280;37452;51.938;4.624;2023-01-19T04:27:16;77131.34;;;-142.75;100.00
41632;BME280;37452;51.938;4.624;2023-01-19T04:29:42;77105.75;;;-142.75;100.00
41632;BME280;37452;51.938;4.624;2023-01-19T04:32:07;77113.63;;;-142.75;100.00
41632;BME280;37452;51.938;4.624;2023-01-19T04:34:33;77091.97;;;-142.75;100.00
41632;BME280;37452;51.938;4.624;2023-01-19T04:36:59;77091.97;;;-142.75;100.00
41632;BME280;37452;51.938;4.624;2023-01-19T04:39:24;77086.06;;;-142.75;100.00
41632;BME280;37452;51.938;4.624;2023-01-19T04:41:50;77115.59;;;-142.75;100.00
41632;BME280;37452;51.938;4.624;2023-01-19T04:44:16;77091.97;;;-142.75;100.00
41632;BME280;37452;51.938;4.624;2023-01-19T04:46:42;77090.00;;;-142.75;100.00
41632;BME280;37452;51.938;4.624;2023-01-19T04:49:08;77070.31;;;-142.75;100.00
41632;BME280;37452;51.938;4.624;2023-01-19T04:51:34;77076.22;;;-142.75;100.00
41632;BME280;37452;51.938;4.624;2023-01-19T04:53:59;77068.34;;;-142.75;100.00
41632;BME280;37452;51.938;4.624;2023-01-19T04:56:25;77064.41;;;-142.75;100.00
41632;BME280;37452;51.938;4.624;2023-01-19T04:58:51;77062.44;;;-142.75;100.00
41632;BME280;37452;51.938;4.624;2023-01-19T05:01:16;77062.44;;;-142.75;100.00
41632;BME280;37452;51.938;4.624;2023-01-19T05:03:41;77072.28;;;-142.75;100.00
41632;BME280;37452;51.938;4.624;2023-01-19T05:06:07;77086.06;;;-142.75;100.00
41632;BME280;37452;51.938;4.624;2023-01-19T05:08:32;77082.13;;;-142.75;100.00
41632;BME280;37452;51.938;4.624;2023-01-19T05:10:57;77091.97;;;-142.75;100.00
41632;BME280;37452;51.938;4.624;2023-01-19T05:13:23;77095.91;;;-142.75;100.00
41632;BME280;37452;51.938;4.624;2023-01-19T05:15:48;77097.88;;;-142.75;100.00
41632;BME280;37452;51.938;4.624;2023-01-19T05:18:14;77101.81;;;-142.75;100.00
41632;BME280;37452;51.938;4.624;2023-01-19T05:20:39;77093.94;;;-142.75;100.00
41632;BME280;37452;51.938;4.624;2023-01-19T05:23:05;77086.06;;;-142.75;100.00
41632;BME280;37452;51.938;4.624;2023-01-19T05:25:30;77095.91;;;-142.75;100.00
41632;BME280;37452;51.938;4.624;2023-01-19T05:27:56;77076.22;;;-142.75;100.00
41632;BME280;37452;51.938;4.624;2023-01-19T05:30:21;77070.31;;;-142.75;100.00
41632;BME280;37452;51.938;4.624;2023-01-19T05:32:46;77066.38;;;-142.75;100.00
41632;BME280;37452;51.938;4.624;2023-01-19T05:35:12;77058.50;;;-142.75;100.00
41632;BME280;37452;51.938;4.624;2023-01-19T05:37:37;77062.44;;;-142.75;100.00
41632;BME280;37452;51.938;4.624;2023-01-19T05:40:03;77054.56;;;-142.75;100.00
41632;BME280;37452;51.938;4.624;2023-01-19T05:42:29;77058.50;;;-142.75;100.00
41632;BME280;37452;51.938;4.624;2023-01-19T05:44:55;77062.44;;;-142.75;100.00
41632;BME280;37452;51.938;4.624;2023-01-19T05:47:20;77066.38;;;-142.75;100.00
41632;BME280;37452;51.938;4.624;2023-01-19T05:49:45;77068.34;;;-142.75;100.00
41632;BME280;37452;51.938;4.624;2023-01-19T05:52:11;77072.28;;;-142.75;100.00
41632;BME280;37452;51.938;4.624;2023-01-19T05:54:36;77074.25;;;-142.75;100.00
41632;BME280;37452;51.938;4.624;2023-01-19T05:57:04;77086.06;;;-142.75;100.00
41632;BME280;37452;51.938;4.624;2023-01-19T05:59:29;77095.91;;;-142.75;100.00
41632;BME280;37452;51.938;4.624;2023-01-19T06:01:55;77097.88;;;-142.75;100.00
41632;BME280;37452;51.938;4.624;2023-01-19T06:04:21;77111.66;;;-142.75;100.00
41632;BME280;37452;51.938;4.624;2023-01-19T06:06:47;77117.56;;;-142.75;100.00
41632;BME280;37452;51.938;4.624;2023-01-19T06:09:13;77121.50;;;-142.75;100.00
41632;BME280;37452;51.938;4.624;2023-01-19T06:11:38;77129.38;;;-142.75;100.00
41632;BME280;37452;51.938;4.624;2023-01-19T06:14:04;77137.25;;;-142.75;100.00
41632;BME280;37452;51.938;4.624;2023-01-19T06:16:29;77143.16;;;-142.75;100.00
41632;BME280;37452;51.938;4.624;2023-01-19T06:18:54;77149.06;;;-142.75;100.00
41632;BME280;37452;51.938;4.624;2023-01-19T06:21:20;77176.63;;;-142.75;100.00
41632;BME280;37452;51.938;4.624;2023-01-19T06:23:45;77188.44;;;-142.75;100.00
41632;BME280;37452;51.938;4.624;2023-01-19T06:26:10;77196.31;;;-142.75;100.00
41632;BME280;37452;51.938;4.624;2023-01-19T06:28:36;77204.19;;;-142.75;100.00
41632;BME280;37452;51.938;4.624;2023-01-19T06:31:01;77204.19;;;-142.75;100.00
41632;BME280;37452;51.938;4.624;2023-01-19T06:33:27;77249.47;;;-142.75;100.00
41632;BME280;37452;51.938;4.624;2023-01-19T06:35:53;77253.41;;;-142.75;100.00
41632;BME280;37452;51.938;4.624;2023-01-19T06:38:19;77269.16;;;-142.75;100.00
41632;BME280;37452;51.938;4.624;2023-01-19T06:40:50;77263.25;;;-142.75;100.00
41632;BME280;37452;51.938;4.624;2023-01-19T06:43:15;77267.19;;;-142.75;100.00
41632;BME280;37452;51.938;4.624;2023-01-19T06:45:41;77280.97;;;-142.75;100.00
41632;BME280;37452;51.938;4.624;2023-01-19T06:48:07;77271.13;;;-142.75;100.00
41632;BME280;37452;51.938;4.624;2023-01-19T06:50:32;77243.56;;;-142.75;100.00
41632;BME280;37452;51.938;4.624;2023-01-19T06:52:57;77241.59;;;-142.75;100.00
41632;BME280;37452;51.938;4.624;2023-01-19T06:55:23;77235.69;;;-142.75;100.00
41632;BME280;37452;51.938;4.624;2023-01-19T06:57:55;77223.88;;;-142.75;100.00
41632;BME280;37452;51.938;4.624;2023-01-19T07:00:20;77231.75;;;-142.75;100.00
41632;BME280;37452;51.938;4.624;2023-01-19T07:02:46;77233.72;;;-142.75;100.00
41632;BME280;37452;51.938;4.624;2023-01-19T07:05:11;77243.56;;;-142.75;100.00
41632;BME280;37452;51.938;4.624;2023-01-19T07:07:38;77247.50;;;-142.75;100.00
41632;BME280;37452;51.938;4.624;2023-01-19T07:10:08;77223.88;;;-142.75;100.00
41632;BME280;37452;51.938;4.624;2023-01-19T07:12:36;77235.69;;;-142.75;100.00
41632;BME280;37452;51.938;4.624;2023-01-19T07:15:01;77239.63;;;-142.75;100.00
41632;BME280;37452;51.938;4.624;2023-01-19T07:17:27;77227.81;;;-142.75;100.00
41632;BME280;37452;51.938;4.624;2023-01-19T07:19:52;77217.97;;;-142.75;100.00
41632;BME280;37452;51.938;4.624;2023-01-19T07:22:17;77217.97;;;-142.75;100.00
41632;BME280;37452;51.938;4.624;2023-01-19T07:24:43;77223.88;;;-142.75;100.00
41632;BME280;37452;51.938;4.624;2023-01-19T07:27:08;77217.97;;;-142.75;100.00
41632;BME280;37452;51.938;4.624;2023-01-19T07:29:35;77223.88;;;-142.75;100.00
41632;BME280;37452;51.938;4.624;2023-01-19T07:32:00;77223.88;;;-142.75;100.00
41632;BME280;37452;51.938;4.624;2023-01-19T07:34:26;77235.69;;;-142.75;100.00
41632;BME280;37452;51.938;4.624;2023-01-19T07:36:51;77245.53;;;-142.75;100.00
41632;BME280;37452;51.938;4.624;2023-01-19T07:39:16;77255.38;;;-142.75;100.00
41632;BME280;37452;51.938;4.624;2023-01-19T07:41:42;77275.06;;;-142.75;100.00
41632;BME280;37452;51.938;4.624;2023-01-19T07:44:07;77271.13;;;-142.75;100.00
41632;BME280;37452;51.938;4.624;2023-01-19T07:46:33;77282.94;;;-142.75;100.00
41632;BME280;37452;51.938;4.624;2023-01-19T07:48:58;77284.91;;;-142.75;100.00
41632;BME280;37452;51.938;4.624;2023-01-19T07:51:23;77300.66;;;-142.75;100.00
41632;BME280;37452;51.938;4.624;2023-01-19T07:53:49;77310.50;;;-142.75;100.00
41632;BME280;37452;51.938;4.624;2023-01-19T07:56:15;77312.47;;;-142.75;100.00
41632;BME280;37452;51.938;4.624;2023-01-19T07:58:41;77306.56;;;-142.75;100.00
41632;BME280;37452;51.938;4.624;2023-01-19T08:01:07;77306.56;;;-142.75;100.00
41632;BME280;37452;51.938;4.624;2023-01-19T08:03:33;77320.34;;;-142.75;100.00
41632;BME280;37452;51.938;4.624;2023-01-19T08:05:59;77318.38;;;-142.75;100.00
41632;BME280;37452;51.938;4.624;2023-01-19T08:08:24;77330.19;;;-142.75;100.00
41632;BME280;37452;51.938;4.624;2023-01-19T08:10:50;77338.06;;;-142.75;100.00
41632;BME280;37452;51.938;4.624;2023-01-19T08:13:16;77349.88;;;-142.75;100.00
41632;BME280;37452;51.938;4.624;2023-01-19T08:15:41;77363.66;;;-142.75;100.00
41632;BME280;37452;51.938;4.624;2023-01-19T08:18:08;77336.09;;;-142.75;100.00
41632;BME280;37452;51.938;4.624;2023-01-19T08:20:35;77347.91;;;-142.75;100.00
41632;BME280;37452;51.938;4.624;2023-01-19T08:23:01;77338.06;;;-142.75;100.00
41632;BME280;37452;51.938;4.624;2023-01-19T08:25:37;77336.09;;;-142.75;100.00
41632;BME280;37452;51.938;4.624;2023-01-19T08:28:05;77326.25;;;-142.75;100.00
41632;BME280;37452;51.938;4.624;2023-01-19T08:30:31;77328.22;;;-142.75;100.00
41632;BME280;37452;51.938;4.624;2023-01-19T08:32:56;77318.38;;;-142.75;100.00
41632;BME280;37452;51.938;4.624;2023-01-19T08:35:29;77330.19;;;-142.75;100.00
41632;BME280;37452;51.938;4.624;2023-01-19T08:37:55;77310.50;;;-142.75;100.00
41632;BME280;37452;51.938;4.624;2023-01-19T08:40:20;77298.69;;;-142.75;100.00
41632;BME280;37452;51.938;4.624;2023-01-19T08:42:46;77273.09;;;-142.75;100.00
41632;BME280;37452;51.938;4.624;2023-01-19T08:45:11;77235.69;;;-142.75;100.00
41632;BME280;37452;51.938;4.624;2023-01-19T08:47:36;77200.25;;;-142.75;100.00
41632;BME280;37452;51.938;4.624;2023-01-19T08:50:02;77156.94;;;-142.75;100.00
41632;BME280;37452;51.938;4.624;2023-01-19T08:52:27;77115.59;;;-142.75;100.00
41632;BME280;37452;51.938;4.624;2023-01-19T08:54:53;77082.13;;;-142.75;100.00
41632;BME280;37452;51.938;4.624;2023-01-19T08:57:18;77070.31;;;-142.75;100.00
41632;BME280;37452;51.938;4.624;2023-01-19T08:59:44;77027.00;;;-142.75;100.00
41632;BME280;37452;51.938;4.624;2023-01-19T09:02:11;77038.81;;;-142.75;100.00
41632;BME280;37452;51.938;4.624;2023-01-19T09:04:37;77011.25;;;-142.75;100.00
41632;BME280;37452;51.938;4.624;2023-01-19T09:07:02;77003.38;;;-142.75;100.00
41632;BME280;37452;51.938;4.624;2023-01-19T09:09:28;76989.59;;;-142.75;100.00
41632;BME280;37452;51.938;4.624;2023-01-19T09:11:53;76956.13;;;-142.75;100.00
41632;BME280;37452;51.938;4.624;2023-01-19T09:14:19;76940.38;;;-142.75;100.00
41632;BME280;37452;51.938;4.624;2023-01-19T09:16:44;76928.56;;;-142.75;100.00
41632;BME280;37452;51.938;4.624;2023-01-19T09:19:10;76867.53;;;-142.75;100.00
41632;BME280;37452;51.938;4.624;2023-01-19T09:21:35;76875.41;;;-142.75;100.00
41632;BME280;37452;51.938;4.624;2023-01-19T09:24:00;76853.75;;;-142.75;100.00
41632;BME280;37452;51.938;4.624;2023-01-19T09:26:26;76853.75;;;-142.75;100.00
41632;BME280;37452;51.938;4.624;2023-01-19T09:28:51;76869.50;;;-142.75;100.00
41632;BME280;37452;51.938;4.624;2023-01-19T09:31:17;76836.03;;;-142.75;100.00
41632;BME280;37452;51.938;4.624;2023-01-19T09:33:42;76810.44;;;-142.75;100.00
41632;BME280;37452;51.938;4.624;2023-01-19T09:36:07;76808.50;;;-142.75;100.00
41632;BME280;37452;51.938;4.624;2023-01-19T09:38:33;76771.09;;;-142.75;100.00
41632;BME280;37452;51.938;4.624;2023-01-19T09:40:59;76737.63;;;-142.75;100.00
41632;BME280;37452;51.938;4.624;2023-01-19T09:43:32;76715.97;;;-142.75;100.00
41632;BME280;37452;51.938;4.624;2023-01-19T09:46:14;76725.81;;;-142.75;100.00
41632;BME280;37452;51.938;4.624;2023-01-19T09:48:54;76708.09;;;-142.75;100.00
41632;BME280;37452;51.938;4.624;2023-01-19T09:51:36;76692.34;;;-142.75;100.00
41632;BME280;37452;51.938;4.624;2023-01-19T09:54:13;76696.28;;;-142.75;100.00
41632;BME280;37452;51.938;4.624;2023-01-19T09:56:41;76700.22;;;-142.75;100.00
41632;BME280;37452;51.938;4.624;2023-01-19T09:59:30;76702.19;;;-142.75;100.00
41632;BME280;37452;51.938;4.624;2023-01-19T10:04:41;76700.22;;;-142.75;100.00
41632;BME280;37452;51.938;4.624;2023-01-19T10:07:13;76684.47;;;-142.75;100.00
41632;BME280;37452;51.938;4.624;2023-01-19T10:09:52;76654.94;;;-142.75;99.55
41632;BME280;37452;51.938;4.624;2023-01-19T10:15:12;76609.66;;;-142.75;91.22
41632;BME280;37452;51.938;4.624;2023-01-19T10:20:15;76625.41;;;-142.75;88.88
41632;BME280;37452;51.938;4.624;2023-01-19T10:22:43;76601.78;;;-142.75;88.00
41632;BME280;37452;51.938;4.624;2023-01-19T10:25:16;76629.34;;;-142.75;85.17
41632;BME280;37452;51.938;4.624;2023-01-19T10:27:42;76631.31;;;-142.75;85.63
41632;BME280;37452;51.938;4.624;2023-01-19T10:30:15;76611.63;;;-142.75;82.84
41632;BME280;37452;51.938;4.624;2023-01-19T10:32:43;76611.63;;;-142.75;78.69
41632;BME280;37452;51.938;4.624;2023-01-19T10:35:16;76611.63;;;-142.75;77.77
41632;BME280;37452;51.938;4.624;2023-01-19T10:37:47;76607.69;;;-142.75;78.25
41632;BME280;37452;51.938;4.624;2023-01-19T10:40:32;76562.41;;;-142.75;78.96
41632;BME280;37452;51.938;4.624;2023-01-19T10:42:58;76627.38;;;-142.75;78.05
41632;BME280;37452;51.938;4.624;2023-01-19T10:45:29;76708.09;;;-142.75;76.73
41632;BME280;37452;51.938;4.624;2023-01-19T10:47:59;76731.72;;;-142.75;79.09
41632;BME280;37452;51.938;4.624;2023-01-19T10:50:31;76700.22;;;-142.75;79.66
41632;BME280;37452;51.938;4.624;2023-01-19T10:53:00;76652.97;;;-142.75;79.01
41632;BME280;37452;51.938;4.624;2023-01-19T10:55:36;76652.97;;;-142.75;77.83
41632;BME280;37452;51.938;4.624;2023-01-19T10:58:02;76706.13;;;-142.75;76.61
41632;BME280;37452;51.938;4.624;2023-01-19T11:00:36;76666.75;;;-142.75;76.37
41632;BME280;37452;51.938;4.624;2023-01-19T11:03:23;76660.84;;;-142.75;75.12
41632;BME280;37452;51.938;4.624;2023-01-19T11:05:49;76645.09;;;-142.75;73.86
41632;BME280;37452;51.938;4.624;2023-01-19T11:08:27;76639.19;;;-142.75;73.36
41632;BME280;37452;51.938;4.624;2023-01-19T11:10:58;76654.94;;;-142.75;73.34
41632;BME280;37452;51.938;4.624;2023-01-19T11:13:26;76605.72;;;-142.75;73.85
41632;BME280;37452;51.938;4.624;2023-01-19T11:15:57;76609.66;;;-142.75;73.63
41632;BME280;37452;51.938;4.624;2023-01-19T11:18:35;76607.69;;;-142.75;74.20
41632;BME280;37452;51.938;4.624;2023-01-19T11:21:12;76564.38;;;-142.75;73.74
41632;BME280;37452;51.938;4.624;2023-01-19T11:23:40;76562.41;;;-142.75;73.48
41632;BME280;37452;51.938;4.624;2023-01-19T11:26:12;76528.97;;;-142.75;71.66
41632;BME280;37452;51.938;4.624;2023-01-19T11:28:50;76536.84;;;-142.75;71.24
41632;BME280;37452;51.938;4.624;2023-01-19T11:31:19;76519.13;;;-142.75;70.16
41632;BME280;37452;51.938;4.624;2023-01-19T11:33:55;76530.91;;;-142.75;70.50
41632;BME280;37452;51.938;4.624;2023-01-19T11:36:24;76509.28;;;-142.75;68.62
41632;BME280;37452;51.938;4.624;2023-01-19T11:38:52;76473.84;;;-142.75;68.25
41632;BME280;37452;51.938;4.624;2023-01-19T11:43:56;76530.91;;;-142.75;66.31
41632;BME280;37452;51.938;4.624;2023-01-19T11:46:23;76619.50;;;-142.75;68.91
41632;BME280;37452;51.938;4.624;2023-01-19T11:49:03;76652.97;;;-142.75;69.50
41632;BME280;37452;51.938;4.624;2023-01-19T11:51:37;76723.84;;;-142.75;70.82
41632;BME280;37452;51.938;4.624;2023-01-19T11:54:16;76704.16;;;-142.75;72.36
41632;BME280;37452;51.938;4.624;2023-01-19T11:56:46;76684.47;;;-142.75;71.83
41632;BME280;37452;51.938;4.624;2023-01-19T11:59:13;76617.53;;;-142.75;72.73
41632;BME280;37452;51.938;4.624;2023-01-19T12:01:44;76566.34;;;-142.75;70.27
41632;BME280;37452;51.938;4.624;2023-01-19T12:04:15;76647.06;;;-142.75;70.37
41632;BME280;37452;51.938;4.624;2023-01-19T12:06:48;76562.41;;;-142.75;69.44
41632;BME280;37452;51.938;4.624;2023-01-19T12:09:18;76601.78;;;-142.75;68.90
41632;BME280;37452;51.938;4.624;2023-01-19T12:11:50;76580.13;;;-142.75;68.64
41632;BME280;37452;51.938;4.624;2023-01-19T12:14:22;76550.59;;;-142.75;69.66
41632;BME280;37452;51.938;4.624;2023-01-19T12:16:52;76499.44;;;-142.75;69.66
41632;BME280;37452;51.938;4.624;2023-01-19T12:19:24;76408.88;;;-142.75;66.21
41632;BME280;37452;51.938;4.624;2023-01-19T12:21:50;76414.78;;;-142.75;64.54
41632;BME280;37452;51.938;4.624;2023-01-19T12:24:17;76532.88;;;-142.75;64.09
41632;BME280;37452;51.938;4.624;2023-01-19T12:26:59;76582.09;;;-142.75;66.05
41632;BME280;37452;51.938;4.624;2023-01-19T12:29:28;76635.25;;;-142.75;68.76
41632;BME280;37452;51.938;4.624;2023-01-19T12:34:42;76672.66;;;-142.75;70.98
41632;BME280;37452;51.938;4.624;2023-01-19T12:37:30;76751.41;;;-142.75;71.39
41632;BME280;37452;51.938;4.624;2023-01-19T12:40:01;76806.50;;;-142.75;71.65
41632;BME280;37452;51.938;4.624;2023-01-19T12:42:27;76845.88;;;-142.75;71.82
41632;BME280;37452;51.938;4.624;2023-01-19T12:45:05;76857.69;;;-142.75;71.11
41632;BME280;37452;51.938;4.624;2023-01-19T12:47:31;76893.13;;;-142.75;71.35
41632;BME280;37452;51.938;4.624;2023-01-19T12:49:57;76771.09;;;-142.75;70.17
41632;BME280;37452;51.938;4.624;2023-01-19T12:52:33;76696.28;;;-142.75;68.98
41632;BME280;37452;51.938;4.624;2023-01-19T12:57:36;76595.88;;;-142.75;64.33
41632;BME280;37452;51.938;4.624;2023-01-19T13:02:45;76530.91;;;-142.75;63.54
41632;BME280;37452;51.938;4.624;2023-01-19T13:13:37;76519.13;;;-142.75;62.61
41632;BME280;37452;51.938;4.624;2023-01-19T13:21:46;76503.38;;;-142.75;62.24
41632;BME280;37452;51.938;4.624;2023-01-19T13:24:18;76613.59;;;-142.75;65.82